createdAt,value
2023-03-26T00:02:10.134Z,1
2023-03-26T00:14:10.265Z,1
2023-03-26T00:26:10.201Z,1
2023-03-26T00:38:10.323Z,1
2023-03-26T00:50:10.146Z,1
2023-03-26T01:02:00.414Z,1
2023-03-26T01:14:00.299Z,1
2023-03-26T01:26:00.267Z,1
2023-03-26T01:38:00.269Z,1
2023-03-26T01:50:00.359Z,1
2023-03-26T02:02:00.380Z,1
2023-03-26T02:14:00.254Z,1
2023-03-26T02:26:00.236Z,1
2023-03-26T02:38:00.367Z,1
2023-03-26T02:50:00.343Z,1
2023-03-26T03:02:00.336Z,1
2023-03-26T03:14:00.454Z,1
2023-03-26T03:26:00.390Z,1
2023-03-26T03:38:00.397Z,1
2023-03-26T03:50:00.324Z,1
2023-03-26T04:02:00.518Z,1
2023-03-26T04:14:00.438Z,1
2023-03-26T04:26:00.456Z,1
2023-03-26T04:38:00.372Z,1
2023-03-26T04:50:00.605Z,1
2023-03-26T05:02:00.538Z,1
2023-03-26T05:14:00.479Z,1
2023-03-26T05:26:00.409Z,1
2023-03-26T05:38:00.589Z,6
2023-03-26T05:50:00.524Z,23
2023-03-26T06:02:00.533Z,46
2023-03-26T06:14:00.642Z,64
2023-03-26T06:26:00.615Z,77
2023-03-26T06:38:00.552Z,83
2023-03-26T06:50:00.521Z,89
2023-03-26T07:02:00.690Z,92
2023-03-26T07:14:00.642Z,93
2023-03-26T07:26:00.594Z,94
2023-03-26T07:38:00.544Z,96
2023-03-26T07:50:00.691Z,95
2023-03-26T08:02:00.697Z,95
2023-03-26T08:14:00.596Z,95
2023-03-26T08:26:00.585Z,96
2023-03-26T08:38:00.719Z,96
2023-03-26T08:50:00.707Z,96
2023-03-26T09:02:00.742Z,96
2023-03-26T09:14:01.028Z,96
2023-03-26T09:26:00.768Z,96
2023-03-26T09:38:00.724Z,96
2023-03-26T09:50:00.686Z,97
2023-03-26T10:02:00.898Z,97
2023-03-26T10:14:00.774Z,97
2023-03-26T10:26:00.773Z,97
2023-03-26T10:38:00.908Z,97
2023-03-26T10:50:01.075Z,97
2023-03-26T11:02:00.873Z,97
2023-03-26T11:14:00.828Z,97
2023-03-26T11:26:00.969Z,97
2023-03-26T11:38:00.946Z,97
2023-03-26T11:50:00.865Z,97
2023-03-26T12:02:00.913Z,97
2023-03-26T12:14:00.976Z,96
2023-03-26T12:26:00.954Z,95
2023-03-26T12:38:00.876Z,96
2023-03-26T12:50:00.894Z,96
2023-03-26T13:02:00.992Z,96
2023-03-26T13:14:00.929Z,96
2023-03-26T13:26:01.543Z,96
2023-03-26T13:38:01.069Z,94
2023-03-26T13:50:00.957Z,94
2023-03-26T14:02:00.991Z,94
2023-03-26T14:14:01.075Z,94
2023-03-26T14:26:01.073Z,94
2023-03-26T14:38:00.966Z,93
2023-03-26T14:50:01.174Z,93
2023-03-26T15:02:01.166Z,94
2023-03-26T15:14:01.095Z,95
2023-03-26T15:26:01.004Z,93
2023-03-26T15:38:01.187Z,88
2023-03-26T15:50:01.117Z,86
2023-03-26T16:02:01.116Z,89
2023-03-26T16:14:01.227Z,92
2023-03-26T16:26:01.208Z,92
2023-03-26T16:38:01.141Z,92
2023-03-26T16:50:07.324Z,91
2023-03-26T17:26:01.602Z,86
2023-03-26T17:38:01.160Z,86
2023-03-26T17:50:01.347Z,76
2023-03-26T18:02:01.311Z,71
2023-03-26T18:14:01.823Z,70
2023-03-26T18:26:01.203Z,59
2023-03-26T18:38:01.404Z,39
2023-03-26T18:50:02.363Z,15
2023-03-26T19:02:01.340Z,3
2023-03-26T19:14:01.210Z,1
2023-03-26T19:26:01.600Z,1
2023-03-26T19:38:01.361Z,1
2023-03-26T19:50:01.310Z,1
2023-03-26T20:02:01.500Z,1
2023-03-26T20:14:01.468Z,1
2023-03-26T20:26:01.360Z,1
2023-03-26T20:38:01.364Z,1
2023-03-26T20:50:01.487Z,1
2023-03-26T21:02:01.493Z,1
2023-03-26T21:14:01.372Z,1
2023-03-26T21:26:01.368Z,1
2023-03-26T21:38:01.528Z,1
2023-03-26T21:50:01.481Z,1
2023-03-26T22:02:02.192Z,1
2023-03-26T22:14:01.609Z,1
2023-03-26T22:26:01.499Z,1
2023-03-26T22:38:01.523Z,1
2023-03-26T22:50:01.416Z,1
2023-03-26T23:02:01.600Z,1
2023-03-26T23:14:01.530Z,1
2023-03-26T23:26:01.509Z,1
2023-03-26T23:38:01.680Z,1
2023-03-26T23:50:01.671Z,1
